createdAt,value
2019-01-21T00:00:42.871Z,70.51
2019-01-21T00:03:14.676Z,70.37
2019-01-21T00:05:43.944Z,70.45
2019-01-21T00:08:13.620Z,70.36
2019-01-21T00:10:43.216Z,70.43
2019-01-21T00:13:12.813Z,70.37
2019-01-21T00:15:42.547Z,70.71
2019-01-21T00:18:12.245Z,70.15
2019-01-21T00:20:45.111Z,70.06
2019-01-21T00:23:14.741Z,70.24
2019-01-21T00:25:44.337Z,69.96
2019-01-21T00:28:13.932Z,70.02
2019-01-21T00:30:43.535Z,69.96
2019-01-21T00:33:13.135Z,70.12
2019-01-21T00:35:42.748Z,70.02
2019-01-21T00:38:12.411Z,70.02
2019-01-21T00:40:42.386Z,70.68
2019-01-21T00:43:11.974Z,70.44
2019-01-21T00:45:41.571Z,70.34
2019-01-21T00:48:13.371Z,70.17
2019-01-21T00:50:46.536Z,70.19
2019-01-21T00:53:19.502Z,69.99
2019-01-21T00:55:49.056Z,70.05
2019-01-21T00:58:18.658Z,70.14
2019-01-21T01:00:48.253Z,70.21
2019-01-21T01:03:17.848Z,70.14
2019-01-21T01:05:47.445Z,70.09
2019-01-21T01:08:17.048Z,70.22
2019-01-21T01:10:46.643Z,70.01
2019-01-21T01:13:16.249Z,70.10
2019-01-21T01:15:45.963Z,70.20
2019-01-21T01:18:15.571Z,70.44
2019-01-21T01:20:45.157Z,70.50
2019-01-21T01:23:14.828Z,70.48
2019-01-21T01:25:44.433Z,70.32
2019-01-21T01:28:15.670Z,70.29
2019-01-21T01:30:45.267Z,70.38
2019-01-21T01:33:14.865Z,70.29
2019-01-21T01:35:44.467Z,70.08
2019-01-21T01:38:14.067Z,69.88
2019-01-21T01:40:45.835Z,69.91
2019-01-21T01:43:15.500Z,69.88
2019-01-21T01:45:45.095Z,69.84
2019-01-21T01:48:14.688Z,70.00
2019-01-21T01:50:44.281Z,69.96
2019-01-21T01:53:13.877Z,70.10
2019-01-21T01:55:43.545Z,69.75
2019-01-21T01:58:13.129Z,69.64
2019-01-21T02:00:42.727Z,69.70
2019-01-21T02:03:12.332Z,69.60
2019-01-21T02:05:42.096Z,69.72
2019-01-21T02:08:11.750Z,69.79
2019-01-21T02:10:41.351Z,69.68
2019-01-21T02:13:10.946Z,69.65
2019-01-21T02:15:40.911Z,69.85
2019-01-21T02:18:10.579Z,70.15
2019-01-21T02:20:40.257Z,70.08
2019-01-21T02:23:11.987Z,70.13
2019-01-21T02:25:47.551Z,70.00
2019-01-21T02:28:22.925Z,70.04
2019-01-21T02:31:30.877Z,70.07
2019-01-21T02:34:09.517Z,70.26
2019-01-21T02:37:02.191Z,70.53
2019-01-21T02:39:50.112Z,70.67
2019-01-21T02:42:34.791Z,70.91
2019-01-21T02:45:13.572Z,70.59
2019-01-21T02:47:49.219Z,70.34
2019-01-21T02:50:34.007Z,70.74
2019-01-21T02:53:18.910Z,70.61
2019-01-21T02:55:54.867Z,70.30
2019-01-21T02:58:39.575Z,70.62
2019-01-21T03:01:27.282Z,70.58
2019-01-21T03:04:22.811Z,70.63
2019-01-21T03:07:01.334Z,70.45
2019-01-21T03:09:46.158Z,70.32
2019-01-21T03:12:24.786Z,70.52
2019-01-21T03:15:28.109Z,70.63
2019-01-21T03:18:15.802Z,70.52
2019-01-21T03:21:07.437Z,70.52
2019-01-21T03:24:13.805Z,70.27
2019-01-21T03:26:52.588Z,70.28
2019-01-21T03:29:46.634Z,70.34
2019-01-21T03:32:39.202Z,70.31
2019-01-21T03:35:20.856Z,70.29
2019-01-21T03:37:59.973Z,70.29
2019-01-21T03:40:44.952Z,69.91
2019-01-21T03:43:50.889Z,69.88
2019-01-21T03:46:38.839Z,69.85
2019-01-21T03:49:17.740Z,69.88
2019-01-21T03:52:19.587Z,69.64
2019-01-21T03:54:50.266Z,69.63
2019-01-21T03:57:23.129Z,70.05
2019-01-21T04:00:04.752Z,70.12
2019-01-21T04:02:58.032Z,70.33
2019-01-21T04:05:30.887Z,70.35
2019-01-21T04:08:09.821Z,70.78
2019-01-21T04:10:59.285Z,70.79
2019-01-21T04:13:43.603Z,70.81
2019-01-21T04:16:19.283Z,70.31
2019-01-21T04:18:54.962Z,70.21
2019-01-21T04:21:36.827Z,69.91
2019-01-21T04:24:32.183Z,70.26
2019-01-21T04:27:07.624Z,70.04
2019-01-21T04:29:59.945Z,70.24
2019-01-21T04:32:41.464Z,70.38
2019-01-21T04:35:14.322Z,70.47
2019-01-21T04:37:56.096Z,70.63
2019-01-21T04:40:50.138Z,70.62
2019-01-21T04:43:34.907Z,70.52
2019-01-21T04:46:28.813Z,70.05
2019-01-21T04:49:07.755Z,70.23
2019-01-21T04:52:10.652Z,70.72
2019-01-21T04:54:52.502Z,70.80
2019-01-21T04:57:34.137Z,70.87
2019-01-21T05:00:09.835Z,71.06
2019-01-21T05:03:11.875Z,70.93
2019-01-21T05:05:59.961Z,70.93
2019-01-21T05:08:44.957Z,71.26
2019-01-21T05:11:34.423Z,71.10
2019-01-21T05:14:13.401Z,70.93
2019-01-21T05:17:03.068Z,70.87
2019-01-21T05:19:44.982Z,70.97
2019-01-21T05:22:27.096Z,71.12
2019-01-21T05:25:12.140Z,71.29
2019-01-21T05:27:53.787Z,71.14
2019-01-21T05:30:29.642Z,71.27
2019-01-21T05:33:11.156Z,71.33
2019-01-21T05:36:01.965Z,71.39
2019-01-21T05:38:43.845Z,71.41
2019-01-21T05:41:19.300Z,71.96
2019-01-21T05:44:10.530Z,71.94
2019-01-21T05:46:49.017Z,71.44
2019-01-21T05:49:21.905Z,71.02
2019-01-21T05:52:00.695Z,71.12
2019-01-21T05:55:06.851Z,70.82
2019-01-21T05:57:48.358Z,70.56
2019-01-21T06:00:42.148Z,69.89
2019-01-21T06:03:30.092Z,70.20
2019-01-21T06:06:20.717Z,70.33
2019-01-21T06:09:22.505Z,70.52
2019-01-21T06:12:01.665Z,70.59
2019-01-21T06:14:39.137Z,70.77
2019-01-21T06:17:24.155Z,70.74
2019-01-21T06:20:15.345Z,70.76
2019-01-21T06:23:06.312Z,70.56
2019-01-21T06:25:41.905Z,70.91
2019-01-21T06:28:20.591Z,71.48
2019-01-21T06:31:01.807Z,71.19
2019-01-21T06:33:46.513Z,70.94
2019-01-21T06:36:22.089Z,71.10
2019-01-21T06:39:19.206Z,70.95
2019-01-21T06:41:52.091Z,70.64
2019-01-21T06:44:36.281Z,70.71
2019-01-21T06:47:11.912Z,70.62
2019-01-21T06:49:44.807Z,70.91
2019-01-21T06:52:24.008Z,71.17
2019-01-21T06:55:14.603Z,71.47
2019-01-21T06:58:02.836Z,71.52
2019-01-21T07:00:44.825Z,71.65
2019-01-21T07:03:38.758Z,71.62
2019-01-21T07:06:32.566Z,71.34
2019-01-21T07:09:23.288Z,71.83
2019-01-21T07:12:01.774Z,71.67
2019-01-21T07:14:46.579Z,70.83
2019-01-21T07:17:28.665Z,70.56
2019-01-21T07:20:21.222Z,70.36
2019-01-21T07:22:54.125Z,70.01
2019-01-21T07:25:45.100Z,70.12
2019-01-21T07:28:23.617Z,69.96
2019-01-21T07:30:56.488Z,70.12
2019-01-21T07:33:46.225Z,70.10
2019-01-21T07:36:24.946Z,70.12
2019-01-21T07:39:18.764Z,69.96
2019-01-21T07:41:51.623Z,70.11
2019-01-21T07:44:36.153Z,70.22
2019-01-21T07:47:21.152Z,70.37
2019-01-21T07:50:15.280Z,70.57
2019-01-21T07:53:15.031Z,70.43
2019-01-21T07:55:59.984Z,70.43
2019-01-21T07:58:47.953Z,70.52
2019-01-21T08:01:26.895Z,70.90
2019-01-21T08:04:11.537Z,70.99
2019-01-21T08:06:59.278Z,70.38
2019-01-21T08:09:35.081Z,70.54
2019-01-21T08:12:24.431Z,69.93
2019-01-21T08:14:59.889Z,69.85
2019-01-21T08:17:52.635Z,70.54
2019-01-21T08:20:28.230Z,70.84
2019-01-21T08:23:25.846Z,70.92
2019-01-21T08:26:16.229Z,71.05
2019-01-21T08:28:59.052Z,71.01
2019-01-21T08:31:43.597Z,70.54
2019-01-21T08:34:19.330Z,70.46
2019-01-21T08:37:23.963Z,70.79
2019-01-21T08:40:37.147Z,70.77
2019-01-21T08:43:25.224Z,70.51
2019-01-21T08:49:37.181Z,71.04
2019-01-21T08:52:12.623Z,71.23
2019-01-21T08:55:26.702Z,71.07
2019-01-21T09:01:39.578Z,71.43
2019-01-21T09:04:20.666Z,70.89
2019-01-21T09:06:53.532Z,70.50
2019-01-21T09:09:26.398Z,70.61
2019-01-21T09:12:10.462Z,70.45
2019-01-21T09:14:55.105Z,71.10
2019-01-21T09:17:33.534Z,71.17
2019-01-21T09:20:24.365Z,70.57
2019-01-21T09:23:20.570Z,71.00
2019-01-21T09:26:14.034Z,70.83
2019-01-21T09:29:21.194Z,70.88
2019-01-21T09:32:14.559Z,70.75
2019-01-21T09:34:47.426Z,71.01
2019-01-21T09:37:26.419Z,70.74
2019-01-21T09:40:12.243Z,70.96
2019-01-21T09:43:07.640Z,70.74
2019-01-21T09:46:01.406Z,70.83
2019-01-21T09:48:30.068Z,71.00
2019-01-21T09:51:02.326Z,71.29
2019-01-21T09:53:32.077Z,71.04
2019-01-21T09:56:01.831Z,71.25
2019-01-21T09:58:32.065Z,71.04
2019-01-21T10:01:57.124Z,71.18
2019-01-21T10:04:48.502Z,71.25
2019-01-21T10:11:03.343Z,70.71
2019-01-21T10:13:50.781Z,70.62
2019-01-21T10:16:46.236Z,70.79
2019-01-21T10:19:28.038Z,70.51
2019-01-21T10:22:29.180Z,70.73
2019-01-21T10:26:02.849Z,70.26
2019-01-21T10:28:56.888Z,70.29
2019-01-21T10:31:40.007Z,69.36
2019-01-21T10:35:07.558Z,69.77
2019-01-21T10:38:11.465Z,69.51
2019-01-21T10:41:12.385Z,69.85
2019-01-21T10:43:50.595Z,69.88
2019-01-21T10:46:45.701Z,69.34
2019-01-21T10:50:03.584Z,69.68
2019-01-21T10:53:02.976Z,69.43
2019-01-21T10:56:07.273Z,69.36
2019-01-21T10:59:17.673Z,69.30
2019-01-21T11:02:11.431Z,69.89
2019-01-21T11:05:14.412Z,69.55
2019-01-21T11:08:05.947Z,69.62
2019-01-21T11:11:13.356Z,69.13
2019-01-21T11:14:07.909Z,68.52
2019-01-21T11:17:10.001Z,68.61
2019-01-21T11:20:53.987Z,68.34
2019-01-21T11:24:13.551Z,68.35
2019-01-21T11:27:34.032Z,68.26
2019-01-21T11:30:36.820Z,67.90
2019-01-21T11:33:41.594Z,68.20
2019-01-21T11:36:32.914Z,68.60
2019-01-21T11:39:34.747Z,68.65
2019-01-21T11:45:25.305Z,68.50
2019-01-21T11:51:23.846Z,67.93
2019-01-21T11:54:31.551Z,68.41
2019-01-21T11:57:20.339Z,68.49
2019-01-21T12:00:14.168Z,68.50
2019-01-21T12:03:16.095Z,67.96
2019-01-21T12:06:14.566Z,68.08
2019-01-21T12:08:55.652Z,68.04
2019-01-21T12:11:48.496Z,68.62
2019-01-21T12:14:33.094Z,68.36
2019-01-21T12:17:28.539Z,68.69
2019-01-21T12:20:18.154Z,68.26
2019-01-21T12:23:26.624Z,68.09
2019-01-21T12:26:39.198Z,67.66
2019-01-21T12:29:43.712Z,67.54
2019-01-21T12:32:37.058Z,67.04
2019-01-21T12:35:16.560Z,66.92
2019-01-21T12:38:06.512Z,66.36
2019-01-21T12:40:58.688Z,66.54
2019-01-21T12:44:15.768Z,67.09
2019-01-21T12:46:45.699Z,67.43
2019-01-21T12:49:27.321Z,67.25
2019-01-21T12:52:18.002Z,66.54
2019-01-21T12:55:20.452Z,66.69
2019-01-21T12:58:15.154Z,67.19
2019-01-21T13:01:15.133Z,67.55
2019-01-21T13:04:10.496Z,67.42
2019-01-21T13:06:54.966Z,67.02
2019-01-21T13:09:37.652Z,66.30
2019-01-21T13:12:43.351Z,66.26
2019-01-21T13:15:35.070Z,65.99
2019-01-21T13:18:17.727Z,66.37
2019-01-21T13:21:22.460Z,66.75
2019-01-21T13:24:51.058Z,66.22
2019-01-21T13:27:20.346Z,66.35
2019-01-21T13:30:09.066Z,65.89
2019-01-21T13:33:13.767Z,65.57
2019-01-21T13:36:25.449Z,66.06
2019-01-21T13:39:11.378Z,65.84
2019-01-21T13:41:44.248Z,66.01
2019-01-21T13:44:33.797Z,66.07
2019-01-21T13:47:15.667Z,65.54
2019-01-21T13:49:54.357Z,66.34
2019-01-21T13:52:32.857Z,66.27
2019-01-21T13:55:20.586Z,66.49
2019-01-21T13:58:18.982Z,66.39
2019-01-21T14:00:54.670Z,66.65
2019-01-21T14:03:30.230Z,66.72
2019-01-21T14:06:30.640Z,66.62
2019-01-21T14:09:06.449Z,66.61
2019-01-21T14:11:42.219Z,66.73
2019-01-21T14:14:17.741Z,66.50
2019-01-21T14:17:02.314Z,66.11
2019-01-21T14:19:38.207Z,65.90
2019-01-21T14:22:20.309Z,66.25
2019-01-21T14:24:56.313Z,66.53
2019-01-21T14:27:54.294Z,66.63
2019-01-21T14:30:32.923Z,66.27
2019-01-21T14:33:11.514Z,66.24
2019-01-21T14:35:50.444Z,66.19
2019-01-21T14:38:38.518Z,66.33
2019-01-21T14:41:17.334Z,66.30
2019-01-21T14:44:10.109Z,66.32
2019-01-21T14:46:48.907Z,65.82
2019-01-21T14:49:27.492Z,65.92
2019-01-21T14:52:22.873Z,66.58
2019-01-21T14:55:01.655Z,66.55
2019-01-21T14:57:34.557Z,66.05
2019-01-21T15:00:22.553Z,66.29
2019-01-21T15:02:58.259Z,66.48
2019-01-21T15:06:03.040Z,66.09
2019-01-21T15:08:35.918Z,66.21
2019-01-21T15:11:14.631Z,66.49
2019-01-21T15:14:02.800Z,66.33
2019-01-21T15:16:53.163Z,66.00
2019-01-21T15:19:26.238Z,66.13
2019-01-21T15:22:01.710Z,66.16
2019-01-21T15:25:00.416Z,66.01
2019-01-21T15:27:36.337Z,66.02
2019-01-21T15:30:29.087Z,66.24
2019-01-21T15:33:07.957Z,66.33
2019-01-21T15:35:57.766Z,66.59
2019-01-21T15:38:45.391Z,66.50
2019-01-21T15:41:40.908Z,66.40
2019-01-21T15:44:14.071Z,66.49
2019-01-21T15:47:15.545Z,66.75
2019-01-21T15:53:07.779Z,67.16
2019-01-21T15:55:56.062Z,67.09
2019-01-21T15:58:37.771Z,67.15
2019-01-21T16:01:27.339Z,67.10
2019-01-21T16:04:17.122Z,67.20
2019-01-21T16:06:56.069Z,67.28
2019-01-21T16:09:44.341Z,67.42
2019-01-21T16:12:29.397Z,68.10
2019-01-21T16:15:11.242Z,68.24
2019-01-21T16:17:53.345Z,68.24
2019-01-21T16:24:01.112Z,68.48
2019-01-21T16:26:38.869Z,68.44
2019-01-21T16:29:47.781Z,68.53
2019-01-21T16:32:18.950Z,68.72
2019-01-21T16:35:34.024Z,68.86
2019-01-21T16:38:08.129Z,68.63
2019-01-21T16:41:21.036Z,68.71
2019-01-21T16:44:03.558Z,68.72
2019-01-21T16:46:34.432Z,68.74
2019-01-21T16:49:13.371Z,68.69
2019-01-21T16:51:50.777Z,68.47
2019-01-21T16:54:38.903Z,68.56
2019-01-21T16:57:18.797Z,68.61
2019-01-21T16:59:59.602Z,69.15
2019-01-21T17:02:29.260Z,69.12
2019-01-21T17:04:58.878Z,69.14
2019-01-21T17:07:30.165Z,69.05
2019-01-21T17:09:59.772Z,68.89
2019-01-21T17:12:29.652Z,68.90
2019-01-21T17:15:06.721Z,69.11
2019-01-21T17:17:38.176Z,68.88
2019-01-21T17:20:22.572Z,68.75
2019-01-21T17:22:58.623Z,68.87
2019-01-21T17:25:29.353Z,68.84
2019-01-21T17:28:18.279Z,68.85
2019-01-21T17:31:19.281Z,68.65
2019-01-21T17:34:05.000Z,68.78
2019-01-21T17:36:41.746Z,68.78
2019-01-21T17:39:24.593Z,68.45
2019-01-21T17:41:54.775Z,68.29
2019-01-21T17:44:27.512Z,68.64
2019-01-21T17:47:04.505Z,68.24
2019-01-21T17:49:36.808Z,68.51
2019-01-21T17:52:21.129Z,68.51
2019-01-21T17:55:07.213Z,68.71
2019-01-21T17:57:37.370Z,68.79
2019-01-21T18:00:18.775Z,69.11
2019-01-21T18:05:51.082Z,69.19
2019-01-21T18:08:29.577Z,69.02
2019-01-21T18:11:10.503Z,68.88
2019-01-21T18:13:49.971Z,68.78
2019-01-21T18:16:35.105Z,68.73
2019-01-21T18:19:16.702Z,68.75
2019-01-21T18:21:46.004Z,68.79
2019-01-21T18:24:22.377Z,68.71
2019-01-21T18:27:14.483Z,68.96
2019-01-21T18:29:43.857Z,69.18
2019-01-21T18:32:13.156Z,69.07
2019-01-21T18:34:42.462Z,69.05
2019-01-21T18:37:11.839Z,69.08
2019-01-21T18:39:41.178Z,69.09
2019-01-21T18:42:10.566Z,69.28
2019-01-21T18:44:39.961Z,69.09
2019-01-21T18:47:09.261Z,68.89
2019-01-21T18:49:39.004Z,68.81
2019-01-21T18:52:08.425Z,69.02
2019-01-21T18:54:37.722Z,68.92
2019-01-21T18:57:07.014Z,69.07
2019-01-21T18:59:36.324Z,69.10
2019-01-21T19:02:05.637Z,69.17
2019-01-21T19:04:35.032Z,69.17
2019-01-21T19:07:54.774Z,69.24
2019-01-21T19:10:20.246Z,69.08
2019-01-21T19:12:49.566Z,69.05
2019-01-21T19:15:34.805Z,69.13
2019-01-21T19:18:18.165Z,68.97
2019-01-21T19:23:55.060Z,68.82
2019-01-21T19:29:22.989Z,68.87
2019-01-21T19:31:49.944Z,68.82
2019-01-21T19:34:19.400Z,68.83
2019-01-21T19:36:48.896Z,68.89
2019-01-21T19:39:18.331Z,68.94
2019-01-21T19:41:47.829Z,68.92
2019-01-21T19:44:20.490Z,69.15
2019-01-21T19:46:49.796Z,69.25
2019-01-21T19:49:21.158Z,69.00
2019-01-21T19:51:50.566Z,68.86
2019-01-21T19:54:19.858Z,69.13
2019-01-21T19:56:49.440Z,69.10
2019-01-21T19:59:18.949Z,69.32
2019-01-21T20:01:48.285Z,69.45
2019-01-21T20:04:17.757Z,69.40
2019-01-21T20:06:50.504Z,69.24
2019-01-21T20:09:20.152Z,69.75
2019-01-21T20:11:55.107Z,69.98
2019-01-21T20:14:47.107Z,69.89
2019-01-21T20:17:11.503Z,69.23
2019-01-21T20:19:41.004Z,69.71
2019-01-21T20:22:11.342Z,68.93
2019-01-21T20:24:40.731Z,68.73
2019-01-21T20:27:10.018Z,68.96
2019-01-21T20:29:39.318Z,69.06
2019-01-21T20:32:08.681Z,69.29
2019-01-21T20:34:37.985Z,69.38
2019-01-21T20:37:07.283Z,69.58
2019-01-21T20:39:36.574Z,69.63
2019-01-21T20:42:05.866Z,69.71
2019-01-21T20:44:35.178Z,69.83
2019-01-21T20:47:04.595Z,69.75
2019-01-21T20:49:33.932Z,69.99
2019-01-21T20:52:03.316Z,70.45
2019-01-21T20:54:32.893Z,70.57
2019-01-21T20:57:02.287Z,70.66
2019-01-21T20:59:31.677Z,70.62
2019-01-21T21:02:00.982Z,70.77
2019-01-21T21:04:31.988Z,70.96
2019-01-21T21:07:10.033Z,70.97
2019-01-21T21:09:39.906Z,70.96
2019-01-21T21:12:09.504Z,70.98
2019-01-21T21:14:38.881Z,71.11
2019-01-21T21:17:15.650Z,71.08
2019-01-21T21:19:44.959Z,71.05
2019-01-21T21:22:20.837Z,71.15
2019-01-21T21:24:45.410Z,71.18
2019-01-21T21:27:14.694Z,71.42
2019-01-21T21:29:44.306Z,71.35
2019-01-21T21:32:17.101Z,71.36
2019-01-21T21:34:46.476Z,71.47
2019-01-21T21:37:15.764Z,71.50
2019-01-21T21:39:45.076Z,71.41
2019-01-21T21:42:22.822Z,71.33
2019-01-21T21:44:52.124Z,71.27
2019-01-21T21:47:21.496Z,71.05
2019-01-21T21:49:51.685Z,70.94
2019-01-21T21:52:27.613Z,70.95
2019-01-21T21:54:52.112Z,71.02
2019-01-21T21:57:21.406Z,71.30
2019-01-21T21:59:50.769Z,71.46
2019-01-21T22:02:20.137Z,71.49
2019-01-21T22:04:49.815Z,71.60
2019-01-21T22:07:19.112Z,71.73
2019-01-21T22:09:48.410Z,71.83
2019-01-21T22:12:17.836Z,71.92
2019-01-21T22:14:47.217Z,72.12
2019-01-21T22:17:16.527Z,72.25
2019-01-21T22:19:45.827Z,72.26
2019-01-21T22:22:15.237Z,72.24
2019-01-21T22:27:23.928Z,72.22
2019-01-21T22:29:55.336Z,72.05
2019-01-21T22:35:09.079Z,72.04
2019-01-21T22:37:38.379Z,72.25
2019-01-21T22:40:11.217Z,72.46
2019-01-21T22:43:34.144Z,72.60
2019-01-21T22:49:41.286Z,72.75
2019-01-21T22:55:10.431Z,72.97
2019-01-21T22:58:04.425Z,72.83
2019-01-21T23:00:54.184Z,73.04
2019-01-21T23:04:03.182Z,73.15
2019-01-21T23:06:22.936Z,73.28
2019-01-21T23:08:52.229Z,73.24
2019-01-21T23:11:21.538Z,73.61
2019-01-21T23:13:50.830Z,73.45
2019-01-21T23:16:20.415Z,73.45
2019-01-21T23:18:49.777Z,73.64
2019-01-21T23:21:19.101Z,73.54
2019-01-21T23:23:48.401Z,73.51
2019-01-21T23:26:17.710Z,73.77
2019-01-21T23:28:47.390Z,73.90
2019-01-21T23:31:16.692Z,74.20
2019-01-21T23:33:45.997Z,74.24
2019-01-21T23:36:15.368Z,74.16
2019-01-21T23:38:44.732Z,74.08
2019-01-21T23:41:14.034Z,74.00
2019-01-21T23:43:43.335Z,73.85
2019-01-21T23:46:12.627Z,73.68
2019-01-21T23:48:41.938Z,73.72
2019-01-21T23:51:11.217Z,73.88
2019-01-21T23:53:40.588Z,73.90
2019-01-21T23:56:09.952Z,74.12
2019-01-21T23:58:39.241Z,73.98
